Time;durP1;ratioP1;P1;durP2;ratioP2;P2;SDS_P1;SDS_P2;PMS_P1;PMS_P2;Temp;Humidity;BMP_temperature;BMP_pressure;BME280_temperature;BME280_humidity;BME280_pressure;Samples;Min_cycle;Max_cycle;Signal;HPM_P1;HPM_P2
2022/09/09 00:01:21;;;;;;;;;;;;;;;12.81;100.00;100744.19;5321069;27;20026;-80
2022/09/09 00:03:59;;;;;;;;;;;;;;;12.83;100.00;100734.16;5322266;27;20273;-81
2022/09/09 00:06:31;;;;;;;;;;;;;;;12.78;100.00;100733.81;5322698;27;19969;-80
2022/09/09 00:09:06;;;;;;;;;;;;;;;12.75;100.00;100734.97;5319588;27;20356;-81
2022/09/09 00:11:48;;;;;;;;;;;;;;;12.75;100.00;100731.47;5317827;27;20011;-81
2022/09/09 00:14:22;;;;;;;;;;;;;;;12.75;100.00;100731.47;5318892;27;19971;-81
2022/09/09 00:16:55;;;;;;;;;;;;;;;12.73;100.00;100738.78;5320676;27;19920;-80
2022/09/09 00:19:27;;;;;;;;;;;;;;;12.68;100.00;100729.41;5320408;27;19970;-81
2022/09/09 00:22:13;;;;;;;;;;;;;;;12.69;100.00;100732.94;5316692;27;20372;-81
2022/09/09 00:24:46;;;;;;;;;;;;;;;12.63;100.00;100720.19;5319912;27;19939;-80
2022/09/09 00:27:37;;;;;;;;;;;;;;;12.62;100.00;100730.06;5321206;27;21228;-80
2022/09/09 00:30:14;;;;;;;;;;;;;;;12.61;100.00;100725.72;5321374;27;19943;-80
2022/09/09 00:32:46;;;;;;;;;;;;;;;12.62;100.00;100729.22;5320366;27;19923;-80
2022/09/09 00:35:22;;;;;;;;;;;;;;;12.57;100.00;100726.16;5322957;27;19966;-80
2022/09/09 00:37:55;;;;;;;;;;;;;;;12.58;100.00;100725.19;5320466;27;19915;-80
2022/09/09 00:40:35;;;;;;;;;;;;;;;12.57;100.00;100726.16;5318929;27;20411;-80
2022/09/09 00:43:24;;;;;;;;;;;;;;;12.54;100.00;100716.63;5319776;27;19928;-80
2022/09/09 00:46:08;;;;;;;;;;;;;;;12.56;100.00;100709.28;5319275;27;19928;-80
2022/09/09 00:48:39;;;;;;;;;;;;;;;12.55;100.00;100704.09;5321186;27;20007;-79
2022/09/09 00:51:30;;;;;;;;;;;;;;;12.58;100.00;100703.78;5320718;27;20014;-79
2022/09/09 00:54:11;;;;;;;;;;;;;;;12.53;100.00;100704.25;5318429;27;20816;-79
2022/09/09 00:56:47;;;;;;;;;;;;;;;12.53;100.00;100700.75;5321445;27;19923;-79
2022/09/09 00:59:28;;;;;;;;;;;;;;;12.52;100.00;100709.75;5316810;27;19931;-80
2022/09/09 01:02:00;;;;;;;;;;;;;;;12.53;100.00;100698.06;5318497;27;19995;-80
2022/09/09 01:04:36;;;;;;;;;;;;;;;12.52;100.00;100701.72;5319957;27;19922;-80
2022/09/09 01:07:13;;;;;;;;;;;;;;;12.50;100.00;100709.94;5320008;27;19938;-80
2022/09/09 01:09:58;;;;;;;;;;;;;;;12.54;100.00;100713.97;5319605;27;19927;-80
2022/09/09 01:12:37;;;;;;;;;;;;;;;12.53;100.00;100703.41;5317120;27;19924;-80
2022/09/09 01:15:20;;;;;;;;;;;;;;;12.52;100.00;100707.06;5321365;27;20310;-80
2022/09/09 01:17:57;;;;;;;;;;;;;;;12.49;100.00;100705.56;5321055;27;20030;-79
2022/09/09 01:20:32;;;;;;;;;;;;;;;12.48;100.00;100694.03;5320360;27;19920;-80
2022/09/09 01:23:16;;;;;;;;;;;;;;;12.48;100.00;100691.38;5318052;27;20380;-80
2022/09/09 01:26:10;;;;;;;;;;;;;;;12.47;100.00;100696.88;5320303;27;19967;-80
2022/09/09 01:28:43;;;;;;;;;;;;;;;12.46;100.00;100685.34;5299311;27;20050;-79
2022/09/09 01:31:17;;;;;;;;;;;;;;;12.48;100.00;100688.69;5317745;27;19920;-80
2022/09/09 01:33:48;;;;;;;;;;;;;;;12.46;100.00;100690.69;5318376;27;19920;-80
2022/09/09 01:36:24;;;;;;;;;;;;;;;12.48;100.00;100686.00;5321054;27;20305;-79
2022/09/09 01:38:55;;;;;;;;;;;;;;;12.49;100.00;100685.00;5319220;27;19924;-80
2022/09/09 01:41:26;;;;;;;;;;;;;;;12.48;100.00;100683.34;5319985;27;19920;-80
2022/09/09 01:43:58;;;;;;;;;;;;;;;12.47;100.00;100681.66;5316977;27;19920;-80
2022/09/09 01:46:29;;;;;;;;;;;;;;;12.47;100.00;100680.81;5320512;27;19982;-80
2022/09/09 01:49:01;;;;;;;;;;;;;;;12.49;100.00;100678.81;5318079;27;20360;-79
2022/09/09 01:51:33;;;;;;;;;;;;;;;12.47;100.00;100675.47;5318819;27;20006;-81
2022/09/09 01:54:06;;;;;;;;;;;;;;;12.43;100.00;100677.63;5315142;27;20776;-80
2022/09/09 01:56:50;;;;;;;;;;;;;;;12.41;100.00;100676.94;5318117;27;19950;-80
2022/09/09 01:59:33;;;;;;;;;;;;;;;12.41;100.00;100676.09;5316511;27;20364;-80
2022/09/09 02:02:09;;;;;;;;;;;;;;;12.41;100.00;100666.25;5316962;27;19924;-80
2022/09/09 02:04:40;;;;;;;;;;;;;;;12.42;100.00;100667.91;5315708;27;19965;-80
2022/09/09 02:07:28;;;;;;;;;;;;;;;12.42;100.00;100662.56;5318775;27;20338;-81
2022/09/09 02:10:11;;;;;;;;;;;;;;;12.41;100.00;100655.53;5318882;27;19920;-80
2022/09/09 02:12:47;;;;;;;;;;;;;;;12.44;100.00;100660.56;5319673;27;19916;-80
2022/09/09 02:15:26;;;;;;;;;;;;;;;12.43;100.00;100658.03;5318830;27;19995;-80
2022/09/09 02:17:58;;;;;;;;;;;;;;;12.42;100.00;100664.41;5313517;27;19946;-81
2022/09/09 02:20:33;;;;;;;;;;;;;;;12.45;100.00;100667.59;5350758;27;19916;-80
2022/09/09 02:23:06;;;;;;;;;;;;;;;12.45;100.00;100669.44;5317000;27;20414;-80
2022/09/09 02:25:39;;;;;;;;;;;;;;;12.45;100.00;100664.91;5318709;27;19927;-80
2022/09/09 02:28:12;;;;;;;;;;;;;;;12.45;100.00;100669.44;5318762;27;19920;-80
2022/09/09 02:30:46;;;;;;;;;;;;;;;12.46;100.00;100658.59;5321421;27;20049;-80
2022/09/09 02:33:18;;;;;;;;;;;;;;;12.49;100.00;100657.41;5318770;27;19924;-80
2022/09/09 02:35:51;;;;;;;;;;;;;;;12.46;100.00;100649.69;5318874;27;19931;-80
2022/09/09 02:38:26;;;;;;;;;;;;;;;12.46;100.00;100655.06;5321761;27;20001;-80
2022/09/09 02:40:58;;;;;;;;;;;;;;;12.46;100.00;100653.25;5319229;27;19931;-80
2022/09/09 02:43:33;;;;;;;;;;;;;;;12.46;100.00;100647.88;5316992;27;19924;-80
2022/09/09 02:46:04;;;;;;;;;;;;;;;12.45;100.00;100648.88;5320153;27;20388;-80
2022/09/09 02:48:47;;;;;;;;;;;;;;;12.45;100.00;100653.38;5323224;27;19923;-80
2022/09/09 02:51:28;;;;;;;;;;;;;;;12.42;100.00;100651.84;5318815;27;19916;-80
2022/09/09 02:54:20;;;;;;;;;;;;;;;12.41;100.00;100657.38;5318281;27;20342;-80
2022/09/09 02:56:56;;;;;;;;;;;;;;;12.41;100.00;100663.56;5322020;27;19946;-80
2022/09/09 02:59:27;;;;;;;;;;;;;;;12.42;100.00;100659.06;5315737;27;19931;-80
2022/09/09 03:01:58;;;;;;;;;;;;;;;12.45;100.00;100664.09;5320909;27;19920;-80
2022/09/09 03:04:31;;;;;;;;;;;;;;;12.47;100.00;100662.09;5319567;27;20578;-80
2022/09/09 03:07:03;;;;;;;;;;;;;;;12.46;100.00;100661.25;5319812;27;19977;-81
2022/09/09 03:09:34;;;;;;;;;;;;;;;12.45;100.00;100658.75;5320080;27;20421;-80
2022/09/09 03:12:06;;;;;;;;;;;;;;;12.46;100.00;100663.94;5321887;27;20779;-80
2022/09/09 03:14:38;;;;;;;;;;;;;;;12.46;100.00;100661.25;5323113;27;20403;-81
2022/09/09 03:17:09;;;;;;;;;;;;;;;12.52;100.00;100667.81;5324753;27;19916;-80
2022/09/09 03:19:40;;;;;;;;;;;;;;;12.53;100.00;100666.78;5322565;27;21105;-81
2022/09/09 03:22:13;;;;;;;;;;;;;;;12.66;100.00;100677.06;5322236;27;19944;-80
2022/09/09 03:24:44;;;;;;;;;;;;;;;12.71;100.00;100674.75;5322283;27;21253;-81
2022/09/09 03:27:15;;;;;;;;;;;;;;;12.74;100.00;100681.63;5320967;27;19920;-80
2022/09/09 03:29:46;;;;;;;;;;;;;;;12.73;100.00;100679.91;5322509;27;20430;-80
2022/09/09 03:32:18;;;;;;;;;;;;;;;12.75;100.00;100675.28;5321378;27;20000;-81
2022/09/09 03:34:52;;;;;;;;;;;;;;;12.78;100.00;100672.25;5323503;27;20488;-81
2022/09/09 03:37:23;;;;;;;;;;;;;;;12.74;100.00;100671.72;5322751;27;20014;-81
2022/09/09 03:39:55;;;;;;;;;;;;;;;12.73;100.00;100674.56;5324763;27;20011;-80
2022/09/09 03:42:26;;;;;;;;;;;;;;;12.72;100.00;100670.22;5325531;27;20287;-81
2022/09/09 03:44:59;;;;;;;;;;;;;;;12.72;100.00;100672.91;5330742;27;21298;-81
2022/09/09 03:47:30;;;;;;;;;;;;;;;12.76;100.00;100667.09;5323820;27;20399;-80
2022/09/09 03:50:01;;;;;;;;;;;;;;;12.81;100.00;100667.41;5321122;27;21148;-81
2022/09/09 03:52:34;;;;;;;;;;;;;;;12.78;100.00;100669.56;5320969;27;19928;-81
2022/09/09 03:55:06;;;;;;;;;;;;;;;12.85;100.00;100667.97;5321380;27;19928;-80
2022/09/09 03:57:37;;;;;;;;;;;;;;;12.85;100.00;100662.59;5317072;27;19927;-81
2022/09/09 04:00:09;;;;;;;;;;;;;;;12.84;100.00;100660.91;5322374;27;19924;-80
2022/09/09 04:02:40;;;;;;;;;;;;;;;12.83;100.00;100664.56;5319591;27;19920;-81
2022/09/09 04:05:11;;;;;;;;;;;;;;;12.83;100.00;100659.22;5324486;27;19924;-80
2022/09/09 04:07:42;;;;;;;;;;;;;;;12.83;100.00;100661.91;5320111;27;19924;-81
2022/09/09 04:10:15;;;;;;;;;;;;;;;12.90;100.00;100664.78;5319703;27;20401;-80
2022/09/09 04:12:47;;;;;;;;;;;;;;;12.89;100.00;100653.25;5320922;27;20001;-80
2022/09/09 04:15:18;;;;;;;;;;;;;;;12.92;100.00;100652.06;5322219;27;19973;-80
2022/09/09 04:17:50;;;;;;;;;;;;;;;12.91;100.00;100659.25;5319665;27;19968;-80
2022/09/09 04:20:22;;;;;;;;;;;;;;;12.98;100.00;100660.28;5320758;27;19916;-80
2022/09/09 04:22:53;;;;;;;;;;;;;;;12.99;100.00;100661.13;5321322;27;19925;-81
2022/09/09 04:25:24;;;;;;;;;;;;;;;13.03;100.00;100655.28;5320024;27;20015;-81
2022/09/09 04:27:56;;;;;;;;;;;;;;;13.09;100.00;100652.97;5317695;27;19924;-81
2022/09/09 04:30:31;;;;;;;;;;;;;;;13.08;100.00;100646.78;5320118;27;19927;-81
2022/09/09 04:33:02;;;;;;;;;;;;;;;13.05;100.00;100641.75;5322276;27;20600;-81
2022/09/09 04:35:33;;;;;;;;;;;;;;;13.06;100.00;100646.09;5326037;27;19924;-81
2022/09/09 04:38:07;;;;;;;;;;;;;;;13.10;100.00;100649.28;5323487;27;19922;-81
2022/09/09 04:40:42;;;;;;;;;;;;;;;13.10;100.00;100652.81;5318724;27;19924;-81
2022/09/09 04:43:16;;;;;;;;;;;;;;;13.12;100.00;100652.63;5319341;27;19920;-81
2022/09/09 04:45:49;;;;;;;;;;;;;;;13.14;100.00;100647.94;5321543;27;19920;-81
2022/09/09 04:48:20;;;;;;;;;;;;;;;13.21;100.00;100647.13;5321475;27;19921;-81
2022/09/09 04:50:59;;;;;;;;;;;;;;;13.24;100.00;100638.75;5320490;27;19962;-81
2022/09/09 04:53:30;;;;;;;;;;;;;;;13.30;100.00;100641.78;5318617;27;19920;-81
2022/09/09 04:56:06;;;;;;;;;;;;;;;13.38;100.00;100645.34;5318066;27;19976;-81
2022/09/09 04:58:38;;;;;;;;;;;;;;;13.37;100.00;100640.97;5319110;27;20391;-81
2022/09/09 05:01:14;;;;;;;;;;;;;;;13.38;100.00;100631.97;5320418;27;19931;-81
2022/09/09 05:03:45;;;;;;;;;;;;;;;13.38;100.00;100637.31;5322829;27;20007;-81
2022/09/09 05:06:18;;;;;;;;;;;;;;;13.41;100.00;100641.50;5324082;27;20516;-81
2022/09/09 05:08:49;;;;;;;;;;;;;;;13.39;100.00;100641.69;5323370;27;19928;-81
2022/09/09 05:11:21;;;;;;;;;;;;;;;13.37;100.00;100642.84;5322459;27;19924;-81
2022/09/09 05:13:53;;;;;;;;;;;;;;;13.36;100.00;100646.53;5319658;27;19969;-81
2022/09/09 05:16:24;;;;;;;;;;;;;;;13.38;100.00;100642.66;5320435;27;20715;-81
2022/09/09 05:18:56;;;;;;;;;;;;;;;13.41;100.00;100639.66;5320546;27;20218;-81
2022/09/09 05:21:28;;;;;;;;;;;;;;;13.40;100.00;100642.50;5320852;27;20014;-81
2022/09/09 05:24:00;;;;;;;;;;;;;;;13.43;100.00;100637.66;5323419;27;20314;-81
2022/09/09 05:26:32;;;;;;;;;;;;;;;13.47;100.00;100638.16;5324446;27;19931;-81
2022/09/09 05:29:03;;;;;;;;;;;;;;;13.49;100.00;100635.31;5325714;27;19924;-81
2022/09/09 05:31:34;;;;;;;;;;;;;;;13.54;100.00;100628.44;5322353;27;19916;-81
2022/09/09 05:34:05;;;;;;;;;;;;;;;13.53;100.00;100628.59;5319496;27;19927;-81
2022/09/09 05:36:37;;;;;;;;;;;;;;;13.52;100.00;100627.78;5331840;27;19928;-81
2022/09/09 05:39:08;;;;;;;;;;;;;;;13.65;100.00;100639.84;5322120;27;19923;-81
2022/09/09 05:41:39;;;;;;;;;;;;;;;13.67;100.00;100644.00;5319609;27;20307;-80
2022/09/09 05:44:11;;;;;;;;;;;;;;;13.65;100.00;100638.00;5319284;27;19924;-81
2022/09/09 05:46:42;;;;;;;;;;;;;;;13.66;100.00;100641.53;5316279;27;19926;-81
2022/09/09 05:49:15;;;;;;;;;;;;;;;13.67;100.00;100646.69;5320745;27;19920;-81
2022/09/09 05:51:47;;;;;;;;;;;;;;;13.69;100.00;100652.75;5320929;27;19924;-81
2022/09/09 05:54:18;;;;;;;;;;;;;;;13.68;100.00;100651.06;5320518;27;19923;-80
2022/09/09 05:56:50;;;;;;;;;;;;;;;13.70;100.00;100654.41;5326783;27;19920;-80
2022/09/09 05:59:23;;;;;;;;;;;;;;;13.73;100.00;100655.94;5319923;27;19926;-80
2022/09/09 06:01:54;;;;;;;;;;;;;;;13.77;100.00;100647.38;5321450;27;19962;-81
2022/09/09 06:04:26;;;;;;;;;;;;;;;13.79;100.00;100656.06;5321086;27;20382;-81
2022/09/09 06:06:57;;;;;;;;;;;;;;;13.93;100.00;100651.06;5320230;27;19942;-81
2022/09/09 06:09:30;;;;;;;;;;;;;;;14.02;100.00;100647.34;5323583;27;20013;-81
2022/09/09 06:12:01;;;;;;;;;;;;;;;14.06;100.00;100659.44;5325374;27;20006;-81
2022/09/09 06:14:32;;;;;;;;;;;;;;;14.13;100.00;100656.88;5331241;27;20489;-81
2022/09/09 06:17:03;;;;;;;;;;;;;;;14.19;100.00;100656.22;5326581;27;20285;-81
2022/09/09 06:19:35;;;;;;;;;;;;;;;14.26;100.00;100664.41;5316949;27;19924;-80
2022/09/09 06:22:06;;;;;;;;;;;;;;;14.29;100.00;100656.88;5322422;27;20485;-80
2022/09/09 06:24:37;;;;;;;;;;;;;;;14.33;100.00;100652.00;5325268;27;19912;-80
2022/09/09 06:27:08;;;;;;;;;;;;;;;14.27;100.00;100661.56;5325683;27;19916;-80
2022/09/09 06:29:39;;;;;;;;;;;;;;;14.18;100.00;100647.34;5324171;28;19923;-80
2022/09/09 06:32:11;;;;;;;;;;;;;;;14.17;100.00;100659.06;5325466;27;20380;-80
2022/09/09 06:34:42;;;;;;;;;;;;;;;14.23;100.00;100654.84;5325493;27;20426;-79
2022/09/09 06:37:13;;;;;;;;;;;;;;;14.30;100.00;100650.47;5325672;27;19920;-80
2022/09/09 06:39:44;;;;;;;;;;;;;;;14.38;100.00;100660.38;5325737;28;19912;-80
2022/09/09 06:42:15;;;;;;;;;;;;;;;14.38;100.00;100649.63;5324332;28;20755;-80
2022/09/09 06:44:47;;;;;;;;;;;;;;;14.41;100.00;100651.97;5325535;28;19919;-80
2022/09/09 06:47:18;;;;;;;;;;;;;;;14.89;100.00;100655.50;5324105;27;19920;-80
2022/09/09 06:49:49;;;;;;;;;;;;;;;15.27;100.00;100652.09;5323436;27;20399;-81
2022/09/09 06:52:20;;;;;;;;;;;;;;;15.65;100.00;100654.84;5331867;27;19916;-80
2022/09/09 06:54:53;;;;;;;;;;;;;;;15.80;100.00;100666.53;5304751;28;19913;-80
2022/09/09 06:57:24;;;;;;;;;;;;;;;16.17;100.00;100656.78;5305039;28;19924;-81
2022/09/09 06:59:55;;;;;;;;;;;;;;;16.53;100.00;100649.81;5304870;28;19962;-80
2022/09/09 07:02:26;;;;;;;;;;;;;;;16.57;100.00;100668.13;5307895;27;19924;-81
2022/09/09 07:04:58;;;;;;;;;;;;;;;16.89;100.00;100657.19;5325448;27;20358;-80
2022/09/09 07:07:30;;;;;;;;;;;;;;;16.91;100.00;100655.13;5324288;28;19916;-80
2022/09/09 07:10:03;;;;;;;;;;;;;;;17.07;100.00;100656.75;5326050;27;19912;-80
2022/09/09 07:12:34;;;;;;;;;;;;;;;16.98;100.00;100651.47;5325323;27;19923;-80
2022/09/09 07:15:05;;;;;;;;;;;;;;;16.91;100.00;100647.88;5325452;27;20372;-80
2022/09/09 07:17:36;;;;;;;;;;;;;;;16.90;100.00;100648.91;5323299;27;19932;-80
2022/09/09 07:20:08;;;;;;;;;;;;;;;16.72;100.00;100646.56;5312336;27;19931;-80
2022/09/09 07:22:39;;;;;;;;;;;;;;;16.60;100.00;100642.66;5303984;28;19962;-80
2022/09/09 07:25:10;;;;;;;;;;;;;;;16.59;100.00;100636.47;5336653;27;20372;-80
2022/09/09 07:27:41;;;;;;;;;;;;;;;16.46;100.00;100641.66;5337227;27;20396;-79
2022/09/09 07:30:12;;;;;;;;;;;;;;;16.33;100.00;100631.53;5308266;28;20033;-80
2022/09/09 07:32:44;;;;;;;;;;;;;;;16.22;100.00;100646.31;5325053;27;19961;-79
2022/09/09 07:35:15;;;;;;;;;;;;;;;16.22;100.00;100640.91;5324931;27;19916;-79
2022/09/09 07:37:46;;;;;;;;;;;;;;;16.35;100.00;100656.41;5325001;27;19955;-79
2022/09/09 07:40:17;;;;;;;;;;;;;;;16.50;100.00;100656.44;5325202;27;19958;-79
2022/09/09 07:42:48;;;;;;;;;;;;;;;16.41;100.00;100650.31;5324681;27;19924;-80
2022/09/09 07:45:20;;;;;;;;;;;;;;;16.27;100.00;100656.53;5324972;27;20115;-79
2022/09/09 07:47:52;;;;;;;;;;;;;;;16.19;100.00;100643.16;5323981;27;20356;-79
2022/09/09 07:50:23;;;;;;;;;;;;;;;16.26;100.00;100644.06;5324561;27;19927;-80
2022/09/09 07:52:55;;;;;;;;;;;;;;;16.49;100.00;100641.28;5325072;27;19912;-79
2022/09/09 07:55:26;;;;;;;;;;;;;;;16.78;100.00;100634.22;5325702;27;20597;-79
2022/09/09 07:58:00;;;;;;;;;;;;;;;17.18;100.00;100635.53;5328790;27;20296;-80
2022/09/09 08:00:33;;;;;;;;;;;;;;;17.56;100.00;100635.28;5327961;27;20261;-79
2022/09/09 08:03:04;;;;;;;;;;;;;;;17.74;100.00;100650.16;5326662;27;20355;-79
2022/09/09 08:05:35;;;;;;;;;;;;;;;17.58;100.00;100644.03;5328405;27;20011;-79
2022/09/09 08:08:08;;;;;;;;;;;;;;;17.41;100.00;100630.97;5327734;27;19916;-80
2022/09/09 08:10:39;;;;;;;;;;;;;;;17.38;100.00;100637.59;5328033;27;20307;-80
2022/09/09 08:13:10;;;;;;;;;;;;;;;17.70;100.00;100632.72;5328125;27;19927;-79
2022/09/09 08:15:43;;;;;;;;;;;;;;;17.56;100.00;100642.53;5327312;27;19912;-80
2022/09/09 08:18:14;;;;;;;;;;;;;;;17.56;100.00;100635.28;5327935;27;19975;-80
2022/09/09 08:20:45;;;;;;;;;;;;;;;17.60;100.00;100627.66;5313804;27;19956;-79
2022/09/09 08:23:16;;;;;;;;;;;;;;;17.74;100.00;100623.19;5306084;28;19913;-80
2022/09/09 08:25:48;;;;;;;;;;;;;;;17.98;100.00;100632.75;5306561;28;19982;-80
2022/09/09 08:28:19;;;;;;;;;;;;;;;18.02;100.00;100631.34;5305078;28;19923;-79
2022/09/09 08:30:53;;;;;;;;;;;;;;;17.74;100.00;100629.44;5306000;27;19920;-79
2022/09/09 08:33:25;;;;;;;;;;;;;;;17.60;100.00;100635.75;5325911;27;19927;-80
2022/09/09 08:35:56;;;;;;;;;;;;;;;17.60;100.00;100635.75;5327877;27;20007;-79
2022/09/09 08:38:28;;;;;;;;;;;;;;;17.54;100.00;100637.34;5328203;28;20002;-80
2022/09/09 08:41:18;;;;;;;;;;;;;;;17.18;100.00;100656.25;5327578;27;20291;-79
2022/09/09 08:43:51;;;;;;;;;;;;;;;17.08;100.00;100647.66;5325849;28;19924;-79
2022/09/09 08:46:29;;;;;;;;;;;;;;;17.06;100.00;100644.28;5327782;27;20026;-79
2022/09/09 08:49:05;;;;;;;;;;;;;;;16.98;100.00;100656.03;5326575;27;20372;-79
2022/09/09 08:51:37;;;;;;;;;;;;;;;16.98;100.00;100656.03;5341386;27;20383;-79
2022/09/09 08:54:09;;;;;;;;;;;;;;;17.08;100.00;100642.28;5331009;27;19916;-79
2022/09/09 08:56:40;;;;;;;;;;;;;;;17.36;100.00;100645.88;5304768;28;19962;-79
2022/09/09 08:59:13;;;;;;;;;;;;;;;17.54;100.00;100644.59;5305792;28;19943;-79
2022/09/09 09:01:59;;;;;;;;;;;;;;;17.64;100.00;100647.81;5306102;28;19916;-80
2022/09/09 09:04:30;;;;;;;;;;;;;;;17.54;100.00;100655.38;5321567;27;19947;-79
2022/09/09 09:07:07;;;;;;;;;;;;;;;17.58;100.00;100662.06;5327173;27;19959;-79
2022/09/09 09:09:46;;;;;;;;;;;;;;;17.51;100.00;100658.47;5327781;27;19912;-79
2022/09/09 09:12:19;;;;;;;;;;;;;;;17.56;100.00;100662.25;5326598;27;19961;-79
2022/09/09 09:14:50;;;;;;;;;;;;;;;17.57;100.00;100655.84;5327393;27;19912;-79
2022/09/09 09:17:24;;;;;;;;;;;;;;;17.66;100.00;100658.41;5326527;27;19973;-79
2022/09/09 09:19:55;;;;;;;;;;;;;;;17.71;100.00;100656.78;5325077;27;20003;-79
2022/09/09 09:22:33;;;;;;;;;;;;;;;17.67;100.00;100671.72;5326173;27;20006;-79
2022/09/09 09:25:05;;;;;;;;;;;;;;;17.53;100.00;100681.53;5326097;27;19916;-79
2022/09/09 09:27:44;;;;;;;;;;;;;;;17.32;100.00;100676.09;5327318;27;19957;-79
2022/09/09 09:30:26;;;;;;;;;;;;;;;17.27;100.00;100674.00;5326741;27;19965;-79
2022/09/09 09:33:00;;;;;;;;;;;;;;;17.45;100.00;100675.44;5326902;27;20041;-79
2022/09/09 09:35:31;;;;;;;;;;;;;;;17.66;100.00;100672.72;5326569;27;20391;-79
2022/09/09 09:38:13;;;;;;;;;;;;;;;17.81;100.00;100669.13;5326146;27;19921;-79
2022/09/09 09:41:00;;;;;;;;;;;;;;;17.85;100.00;100668.53;5326886;27;20007;-79
2022/09/09 09:43:34;;;;;;;;;;;;;;;17.56;100.00;100670.34;5316069;27;20046;-80
2022/09/09 09:46:17;;;;;;;;;;;;;;;16.83;100.00;100677.59;5337740;27;19956;-80
2022/09/09 09:48:58;;;;;;;;;;;;;;;16.35;100.00;100679.81;5338130;27;20482;-80
2022/09/09 09:51:32;;;;;;;;;;;;;;;16.04;100.00;100678.94;5305468;28;19923;-80
2022/09/09 09:54:23;;;;;;;;;;;;;;;15.80;100.00;100692.59;5306581;27;19969;-80
2022/09/09 09:56:54;;;;;;;;;;;;;;;15.55;100.00;100691.91;5330178;27;20350;-79
2022/09/09 09:59:29;;;;;;;;;;;;;;;15.40;100.00;100684.59;5327002;27;19920;-80
2022/09/09 10:02:18;;;;;;;;;;;;;;;15.35;100.00;100681.59;5326278;27;19916;-80
2022/09/09 10:05:01;;;;;;;;;;;;;;;15.24;100.00;100679.34;5325082;28;19916;-80
2022/09/09 10:07:33;;;;;;;;;;;;;;;15.28;100.00;100680.66;5326742;27;19916;-80
2022/09/09 10:10:05;;;;;;;;;;;;;;;15.34;100.00;100684.47;5325655;27;20490;-80
2022/09/09 10:12:59;;;;;;;;;;;;;;;15.36;100.00;100682.44;5325692;28;20418;-80
2022/09/09 10:15:53;;;;;;;;;;;;;;;15.41;100.00;100685.44;5324647;27;19912;-80
2022/09/09 10:18:35;;;;;;;;;;;;;;;15.53;100.00;100691.25;5325219;27;19926;-80
2022/09/09 10:21:20;;;;;;;;;;;;;;;15.53;100.00;100693.94;5320549;28;19963;-81
2022/09/09 10:24:01;;;;;;;;;;;;;;;15.44;100.00;100691.28;5305119;28;19916;-80
2022/09/09 10:26:33;;;;;;;;;;;;;;;15.27;100.00;100697.78;5326049;27;19922;-80
2022/09/09 10:29:07;;;;;;;;;;;;;;;15.18;100.00;100706.91;5326520;27;19916;-80
2022/09/09 10:31:57;;;;;;;;;;;;;;;15.09;100.00;100700.72;5326346;27;19916;-80
2022/09/09 10:34:47;;;;;;;;;;;;;;;15.21;100.00;100709.25;5326212;28;19912;-80
2022/09/09 10:37:25;;;;;;;;;;;;;;;15.23;100.00;100699.97;5325898;27;19916;-80
2022/09/09 10:40:03;;;;;;;;;;;;;;;15.28;100.00;100710.22;5325810;27;19919;-80
2022/09/09 10:42:34;;;;;;;;;;;;;;;15.25;100.00;100707.88;5325222;27;19977;-80
2022/09/09 10:45:06;;;;;;;;;;;;;;;15.41;100.00;100709.63;5325815;27;19920;-80
2022/09/09 10:47:38;;;;;;;;;;;;;;;15.43;100.00;100702.25;5325991;27;19916;-80
2022/09/09 10:50:20;;;;;;;;;;;;;;;15.61;100.00;100705.47;5325620;27;19923;-80
2022/09/09 10:52:55;;;;;;;;;;;;;;;15.84;100.00;100704.66;5325929;27;19918;-80
2022/09/09 10:55:30;;;;;;;;;;;;;;;15.91;100.00;100702.91;5324946;27;19920;-80
2022/09/09 10:58:04;;;;;;;;;;;;;;;15.98;100.00;100703.03;5323572;27;19924;-80
2022/09/09 11:00:35;;;;;;;;;;;;;;;15.80;100.00;100716.81;5325974;27;19956;-80
2022/09/09 11:03:16;;;;;;;;;;;;;;;15.78;100.00;100706.22;5325270;27;20379;-80
2022/09/09 11:05:53;;;;;;;;;;;;;;;15.69;100.00;100701.91;5324973;27;19916;-80
2022/09/09 11:08:25;;;;;;;;;;;;;;;15.72;100.00;100706.91;5325566;27;20002;-80
2022/09/09 11:11:13;;;;;;;;;;;;;;;15.81;100.00;100696.94;5325222;27;19969;-78
2022/09/09 11:13:51;;;;;;;;;;;;;;;16.16;100.00;100698.16;5325605;27;19916;-81
2022/09/09 11:16:31;;;;;;;;;;;;;;;16.32;100.00;100699.88;5323247;27;20342;-78
2022/09/09 11:19:21;;;;;;;;;;;;;;;16.27;100.00;100713.03;5325442;27;19912;-79
2022/09/09 11:21:53;;;;;;;;;;;;;;;16.07;100.00;100693.88;5325178;28;19912;-78
2022/09/09 11:25:03;;;;;;;;;;;;;;;15.99;100.00;100707.41;5324498;27;20308;-78
2022/09/09 11:27:54;;;;;;;;;;;;;;;15.97;100.00;100706.72;5322050;28;19922;-79
2022/09/09 11:30:32;;;;;;;;;;;;;;;15.91;100.00;100708.28;5322831;27;19912;-78
2022/09/09 11:33:06;;;;;;;;;;;;;;;15.91;100.00;100699.41;5327832;27;19919;-78
2022/09/09 11:36:03;;;;;;;;;;;;;;;15.83;100.00;100670.69;5327379;27;19920;-79
2022/09/09 11:38:38;;;;;;;;;;;;;;;15.83;100.00;100694.91;5327357;27;19927;-78
2022/09/09 11:41:10;;;;;;;;;;;;;;;15.87;100.00;100704.31;5330630;27;19924;-78
2022/09/09 11:43:46;;;;;;;;;;;;;;;15.90;100.00;100701.25;5317841;27;19921;-78
2022/09/09 11:46:19;;;;;;;;;;;;;;;15.97;100.00;100694.13;5307188;28;19912;-78
2022/09/09 11:49:00;;;;;;;;;;;;;;;15.88;100.00;100690.69;5314026;27;20007;-78
2022/09/09 11:51:32;;;;;;;;;;;;;;;16.04;100.00;100689.69;5328208;27;20381;-78
2022/09/09 11:54:22;;;;;;;;;;;;;;;16.34;100.00;100700.50;5328479;27;19919;-78
2022/09/09 11:56:53;;;;;;;;;;;;;;;16.47;100.00;100705.25;5327187;27;19955;-79
2022/09/09 11:59:26;;;;;;;;;;;;;;;16.33;100.00;100704.22;5326685;27;19975;-78
2022/09/09 12:02:02;;;;;;;;;;;;;;;16.24;100.00;100692.69;5327241;27;19927;-78
2022/09/09 12:04:44;;;;;;;;;;;;;;;16.40;100.00;100698.94;5328696;27;19918;-78
2022/09/09 12:07:29;;;;;;;;;;;;;;;16.70;100.00;100694.38;5328334;27;20319;-78
2022/09/09 12:10:06;;;;;;;;;;;;;;;17.18;100.00;100699.38;5328321;27;19912;-78
2022/09/09 12:12:38;;;;;;;;;;;;;;;17.61;100.00;100695.91;5323817;27;19977;-78
2022/09/09 12:15:09;;;;;;;;;;;;;;;17.66;100.00;100682.69;5326773;27;19920;-78
2022/09/09 12:17:54;;;;;;;;;;;;;;;17.44;100.00;100682.66;5327593;28;19927;-78
2022/09/09 12:20:34;;;;;;;;;;;;;;;17.23;100.00;100677.25;5325652;27;20014;-78
2022/09/09 12:23:19;;;;;;;;;;;;;;;17.30;100.00;100679.00;5331761;27;19916;-78
2022/09/09 12:25:59;;;;;;;;;;;;;;;17.27;100.00;100687.47;5326186;28;19958;-78
2022/09/09 12:28:30;;;;;;;;;;;;;;;17.23;100.00;100685.34;5326700;27;20011;-78
2022/09/09 12:31:07;;;;;;;;;;;;;;;17.64;100.00;100680.19;5325670;27;20007;-78
2022/09/09 12:33:43;;;;;;;;;;;;;;;17.78;100.00;100664.94;5325371;27;20372;-78
2022/09/09 12:36:17;;;;;;;;;;;;;;;17.84;100.00;100674.13;5327586;27;19927;-79
2022/09/09 12:38:50;;;;;;;;;;;;;;;17.69;100.00;100675.03;5327652;27;19977;-78
2022/09/09 12:41:22;;;;;;;;;;;;;;;17.60;100.00;100667.25;5324776;27;20067;-79
2022/09/09 12:44:08;;;;;;;;;;;;;;;17.47;100.00;100665.28;5319989;27;19928;-78
2022/09/09 12:46:41;;;;;;;;;;;;;;;16.97;100.00;100655.22;5332249;27;19989;-80
2022/09/09 12:49:24;;;;;;;;;;;;;;;16.46;100.00;100668.56;5327719;27;19993;-82
2022/09/09 12:51:57;;;;;;;;;;;;;;;16.19;100.00;100667.34;5326310;27;19943;-80
2022/09/09 12:54:28;;;;;;;;;;;;;;;15.91;100.00;100665.25;5319126;27;19923;-80
2022/09/09 12:56:59;;;;;;;;;;;;;;;15.76;100.00;100670.63;5307126;27;20300;-80
2022/09/09 12:59:39;;;;;;;;;;;;;;;15.62;100.00;100665.97;5317314;27;19920;-82
2022/09/09 13:02:26;;;;;;;;;;;;;;;15.66;100.00;100675.38;5333568;27;20323;-82
2022/09/09 13:05:06;;;;;;;;;;;;;;;16.04;100.00;100672.69;5351960;27;19916;-82
2022/09/09 13:07:37;;;;;;;;;;;;;;;16.73;100.00;100677.88;5316774;27;19924;-81